sensor_id;sensor_type;location;lat;lon;timestamp;temperature;humidity
16066;DHT22;8137;48.952;8.970;2023-05-10T00:02:24;13.30;99.90
16066;DHT22;8137;48.952;8.970;2023-05-10T00:04:50;13.20;99.90
16066;DHT22;8137;48.952;8.970;2023-05-10T00:07:16;13.20;99.90
16066;DHT22;8137;48.952;8.970;2023-05-10T00:09:43;13.20;99.90
16066;DHT22;8137;48.952;8.970;2023-05-10T00:12:09;13.20;99.90
16066;DHT22;8137;48.952;8.970;2023-05-10T00:14:34;13.20;99.90
16066;DHT22;8137;48.952;8.970;2023-05-10T00:17:00;13.20;99.90
16066;DHT22;8137;48.952;8.970;2023-05-10T00:19:26;13.10;99.90
16066;DHT22;8137;48.952;8.970;2023-05-10T00:21:52;13.10;99.90
16066;DHT22;8137;48.952;8.970;2023-05-10T00:24:17;13.10;99.90
16066;DHT22;8137;48.952;8.970;2023-05-10T00:26:43;13.00;99.90
16066;DHT22;8137;48.952;8.970;2023-05-10T00:29:09;13.00;99.90
16066;DHT22;8137;48.952;8.970;2023-05-10T00:31:34;13.00;99.90
16066;DHT22;8137;48.952;8.970;2023-05-10T00:34:00;12.90;99.90
16066;DHT22;8137;48.952;8.970;2023-05-10T00:36:25;12.90;99.90
16066;DHT22;8137;48.952;8.970;2023-05-10T00:38:51;12.90;99.90
16066;DHT22;8137;48.952;8.970;2023-05-10T00:41:17;12.80;99.90
16066;DHT22;8137;48.952;8.970;2023-05-10T00:43:42;12.80;99.90
16066;DHT22;8137;48.952;8.970;2023-05-10T00:46:08;12.80;99.90
16066;DHT22;8137;48.952;8.970;2023-05-10T00:48:34;12.70;99.90
16066;DHT22;8137;48.952;8.970;2023-05-10T00:51:01;12.70;99.90
16066;DHT22;8137;48.952;8.970;2023-05-10T00:53:27;12.70;99.90
16066;DHT22;8137;48.952;8.970;2023-05-10T00:55:54;12.70;99.90
16066;DHT22;8137;48.952;8.970;2023-05-10T00:58:19;12.70;99.90
16066;DHT22;8137;48.952;8.970;2023-05-10T01:00:46;12.60;99.90
16066;DHT22;8137;48.952;8.970;2023-05-10T01:03:12;12.60;99.90
16066;DHT22;8137;48.952;8.970;2023-05-10T01:05:38;12.60;99.90
16066;DHT22;8137;48.952;8.970;2023-05-10T01:08:03;12.70;99.90
16066;DHT22;8137;48.952;8.970;2023-05-10T01:10:30;12.70;99.90
16066;DHT22;8137;48.952;8.970;2023-05-10T01:12:56;12.70;99.90
16066;DHT22;8137;48.952;8.970;2023-05-10T01:15:22;12.70;99.90
16066;DHT22;8137;48.952;8.970;2023-05-10T01:17:48;12.70;99.90
16066;DHT22;8137;48.952;8.970;2023-05-10T01:20:15;12.70;99.90
16066;DHT22;8137;48.952;8.970;2023-05-10T01:31:08;12.80;99.90
16066;DHT22;8137;48.952;8.970;2023-05-10T01:41:37;12.70;99.90
16066;DHT22;8137;48.952;8.970;2023-05-10T01:44:11;12.70;99.90
16066;DHT22;8137;48.952;8.970;2023-05-10T01:46:40;12.70;99.90
16066;DHT22;8137;48.952;8.970;2023-05-10T01:49:26;12.70;99.90
16066;DHT22;8137;48.952;8.970;2023-05-10T01:51:59;12.70;99.90
16066;DHT22;8137;48.952;8.970;2023-05-10T01:54:27;12.80;99.90
16066;DHT22;8137;48.952;8.970;2023-05-10T01:57:02;12.70;99.90
16066;DHT22;8137;48.952;8.970;2023-05-10T01:59:31;12.70;99.90
16066;DHT22;8137;48.952;8.970;2023-05-10T02:02:02;12.70;99.90
16066;DHT22;8137;48.952;8.970;2023-05-10T02:04:28;12.70;99.90
16066;DHT22;8137;48.952;8.970;2023-05-10T02:06:55;12.70;99.90
16066;DHT22;8137;48.952;8.970;2023-05-10T02:09:22;12.70;99.90
16066;DHT22;8137;48.952;8.970;2023-05-10T02:11:49;12.70;99.90
16066;DHT22;8137;48.952;8.970;2023-05-10T02:14:15;12.70;99.90
16066;DHT22;8137;48.952;8.970;2023-05-10T02:16:43;12.70;99.90
16066;DHT22;8137;48.952;8.970;2023-05-10T02:19:10;12.70;99.90
16066;DHT22;8137;48.952;8.970;2023-05-10T02:21:39;12.70;99.90
16066;DHT22;8137;48.952;8.970;2023-05-10T02:24:05;12.80;99.90
16066;DHT22;8137;48.952;8.970;2023-05-10T02:26:33;12.70;99.90
16066;DHT22;8137;48.952;8.970;2023-05-10T02:29:02;12.80;99.90
16066;DHT22;8137;48.952;8.970;2023-05-10T02:31:30;12.70;99.90
16066;DHT22;8137;48.952;8.970;2023-05-10T02:33:57;12.70;99.90
16066;DHT22;8137;48.952;8.970;2023-05-10T02:36:23;12.80;99.90
16066;DHT22;8137;48.952;8.970;2023-05-10T02:38:51;12.80;99.90
16066;DHT22;8137;48.952;8.970;2023-05-10T02:41:20;12.80;99.90
16066;DHT22;8137;48.952;8.970;2023-05-10T02:43:52;12.80;99.90
16066;DHT22;8137;48.952;8.970;2023-05-10T02:46:21;12.80;99.90
16066;DHT22;8137;48.952;8.970;2023-05-10T02:48:46;12.80;99.90
16066;DHT22;8137;48.952;8.970;2023-05-10T02:51:14;12.80;99.90
16066;DHT22;8137;48.952;8.970;2023-05-10T02:53:44;12.80;99.90
16066;DHT22;8137;48.952;8.970;2023-05-10T02:56:23;12.80;99.90
16066;DHT22;8137;48.952;8.970;2023-05-10T02:58:50;12.80;99.90
16066;DHT22;8137;48.952;8.970;2023-05-10T03:01:15;12.80;99.90
16066;DHT22;8137;48.952;8.970;2023-05-10T03:03:41;12.80;99.90
16066;DHT22;8137;48.952;8.970;2023-05-10T03:06:07;12.90;99.90
16066;DHT22;8137;48.952;8.970;2023-05-10T03:08:33;12.90;99.90
16066;DHT22;8137;48.952;8.970;2023-05-10T03:16:56;12.90;99.90
16066;DHT22;8137;48.952;8.970;2023-05-10T03:19:30;12.90;99.90
16066;DHT22;8137;48.952;8.970;2023-05-10T03:22:01;12.90;99.90
16066;DHT22;8137;48.952;8.970;2023-05-10T03:24:30;12.90;99.90
16066;DHT22;8137;48.952;8.970;2023-05-10T03:26:56;12.90;99.90
16066;DHT22;8137;48.952;8.970;2023-05-10T03:29:25;12.90;99.90
16066;DHT22;8137;48.952;8.970;2023-05-10T03:31:51;12.90;99.90
16066;DHT22;8137;48.952;8.970;2023-05-10T03:34:17;12.90;99.90
16066;DHT22;8137;48.952;8.970;2023-05-10T03:36:48;12.90;99.90
16066;DHT22;8137;48.952;8.970;2023-05-10T03:39:13;12.90;99.90
16066;DHT22;8137;48.952;8.970;2023-05-10T03:41:39;12.90;99.90
16066;DHT22;8137;48.952;8.970;2023-05-10T03:44:04;12.90;99.90
16066;DHT22;8137;48.952;8.970;2023-05-10T03:46:30;12.90;99.90
16066;DHT22;8137;48.952;8.970;2023-05-10T03:48:56;12.90;99.90
16066;DHT22;8137;48.952;8.970;2023-05-10T03:51:21;12.90;99.90
16066;DHT22;8137;48.952;8.970;2023-05-10T03:53:47;12.90;99.90
16066;DHT22;8137;48.952;8.970;2023-05-10T03:56:13;12.90;99.90
16066;DHT22;8137;48.952;8.970;2023-05-10T03:58:38;12.90;99.90
16066;DHT22;8137;48.952;8.970;2023-05-10T04:01:04;13.00;99.90
16066;DHT22;8137;48.952;8.970;2023-05-10T04:03:29;13.00;99.90
16066;DHT22;8137;48.952;8.970;2023-05-10T04:05:59;13.00;99.90
16066;DHT22;8137;48.952;8.970;2023-05-10T04:08:26;13.00;99.90
16066;DHT22;8137;48.952;8.970;2023-05-10T04:10:51;13.00;99.90
16066;DHT22;8137;48.952;8.970;2023-05-10T04:13:17;12.90;99.90
16066;DHT22;8137;48.952;8.970;2023-05-10T04:15:42;12.90;99.90
16066;DHT22;8137;48.952;8.970;2023-05-10T04:18:08;13.00;99.90
16066;DHT22;8137;48.952;8.970;2023-05-10T04:20:35;13.00;99.90
16066;DHT22;8137;48.952;8.970;2023-05-10T04:23:00;13.00;99.90
16066;DHT22;8137;48.952;8.970;2023-05-10T04:25:26;13.00;99.90
16066;DHT22;8137;48.952;8.970;2023-05-10T04:27:52;12.90;99.90
16066;DHT22;8137;48.952;8.970;2023-05-10T04:30:17;12.90;99.90
16066;DHT22;8137;48.952;8.970;2023-05-10T04:32:43;12.90;99.90
16066;DHT22;8137;48.952;8.970;2023-05-10T04:35:08;12.90;99.90
16066;DHT22;8137;48.952;8.970;2023-05-10T04:37:35;12.90;99.90
16066;DHT22;8137;48.952;8.970;2023-05-10T04:40:02;13.00;99.90
16066;DHT22;8137;48.952;8.970;2023-05-10T04:42:28;13.00;99.90
16066;DHT22;8137;48.952;8.970;2023-05-10T04:44:54;13.00;99.90
16066;DHT22;8137;48.952;8.970;2023-05-10T04:47:19;13.00;99.90
16066;DHT22;8137;48.952;8.970;2023-05-10T04:49:45;13.00;99.90
16066;DHT22;8137;48.952;8.970;2023-05-10T04:52:10;13.00;99.90
16066;DHT22;8137;48.952;8.970;2023-05-10T04:54:36;13.10;99.90
16066;DHT22;8137;48.952;8.970;2023-05-10T04:57:02;13.00;99.90
16066;DHT22;8137;48.952;8.970;2023-05-10T04:59:28;13.10;99.90
16066;DHT22;8137;48.952;8.970;2023-05-10T05:01:53;13.10;99.90
16066;DHT22;8137;48.952;8.970;2023-05-10T05:04:19;13.10;99.90
16066;DHT22;8137;48.952;8.970;2023-05-10T05:06:44;13.10;99.90
16066;DHT22;8137;48.952;8.970;2023-05-10T05:09:10;13.20;99.90
16066;DHT22;8137;48.952;8.970;2023-05-10T05:11:35;13.20;99.90
16066;DHT22;8137;48.952;8.970;2023-05-10T05:14:01;13.30;99.90
16066;DHT22;8137;48.952;8.970;2023-05-10T05:16:27;13.40;99.90
16066;DHT22;8137;48.952;8.970;2023-05-10T05:18:52;13.40;99.90
16066;DHT22;8137;48.952;8.970;2023-05-10T05:21:19;13.40;99.90
16066;DHT22;8137;48.952;8.970;2023-05-10T05:23:45;13.50;99.90
16066;DHT22;8137;48.952;8.970;2023-05-10T05:26:11;13.50;99.90
16066;DHT22;8137;48.952;8.970;2023-05-10T05:28:37;13.50;99.90
16066;DHT22;8137;48.952;8.970;2023-05-10T05:31:04;13.50;99.90
16066;DHT22;8137;48.952;8.970;2023-05-10T05:33:30;13.60;99.90
16066;DHT22;8137;48.952;8.970;2023-05-10T05:35:56;13.60;99.90
16066;DHT22;8137;48.952;8.970;2023-05-10T05:38:22;13.60;99.90
16066;DHT22;8137;48.952;8.970;2023-05-10T05:40:47;13.60;99.90
16066;DHT22;8137;48.952;8.970;2023-05-10T05:43:13;13.70;99.90
16066;DHT22;8137;48.952;8.970;2023-05-10T05:45:38;13.80;99.90
16066;DHT22;8137;48.952;8.970;2023-05-10T05:48:04;13.80;99.90
16066;DHT22;8137;48.952;8.970;2023-05-10T05:50:30;13.80;99.90
16066;DHT22;8137;48.952;8.970;2023-05-10T05:52:55;13.90;99.90
16066;DHT22;8137;48.952;8.970;2023-05-10T05:55:22;13.90;99.90
16066;DHT22;8137;48.952;8.970;2023-05-10T05:57:49;13.90;99.90
16066;DHT22;8137;48.952;8.970;2023-05-10T06:00:15;13.90;99.90
16066;DHT22;8137;48.952;8.970;2023-05-10T06:02:40;14.00;99.90
16066;DHT22;8137;48.952;8.970;2023-05-10T06:05:06;14.00;99.90
16066;DHT22;8137;48.952;8.970;2023-05-10T06:07:33;14.10;99.90
16066;DHT22;8137;48.952;8.970;2023-05-10T06:09:58;14.10;99.90
16066;DHT22;8137;48.952;8.970;2023-05-10T06:12:24;14.20;99.90
16066;DHT22;8137;48.952;8.970;2023-05-10T06:14:49;14.10;99.90
16066;DHT22;8137;48.952;8.970;2023-05-10T06:17:15;14.20;99.90
16066;DHT22;8137;48.952;8.970;2023-05-10T06:19:40;14.30;99.90
16066;DHT22;8137;48.952;8.970;2023-05-10T06:22:06;14.40;99.90
16066;DHT22;8137;48.952;8.970;2023-05-10T06:24:32;14.50;99.90
16066;DHT22;8137;48.952;8.970;2023-05-10T06:26:57;14.60;99.90
16066;DHT22;8137;48.952;8.970;2023-05-10T06:29:25;14.60;99.90
16066;DHT22;8137;48.952;8.970;2023-05-10T06:31:51;14.80;99.90
16066;DHT22;8137;48.952;8.970;2023-05-10T06:34:17;15.00;99.90
16066;DHT22;8137;48.952;8.970;2023-05-10T06:36:42;15.00;99.90
16066;DHT22;8137;48.952;8.970;2023-05-10T06:39:08;15.10;99.90
16066;DHT22;8137;48.952;8.970;2023-05-10T06:41:33;15.20;99.90
16066;DHT22;8137;48.952;8.970;2023-05-10T06:43:59;15.30;99.90
16066;DHT22;8137;48.952;8.970;2023-05-10T06:46:24;15.20;99.90
16066;DHT22;8137;48.952;8.970;2023-05-10T06:48:50;15.20;99.90
16066;DHT22;8137;48.952;8.970;2023-05-10T06:51:15;15.40;99.90
16066;DHT22;8137;48.952;8.970;2023-05-10T06:53:41;15.40;99.90
16066;DHT22;8137;48.952;8.970;2023-05-10T06:56:06;15.50;99.90
16066;DHT22;8137;48.952;8.970;2023-05-10T06:58:32;15.50;99.90
16066;DHT22;8137;48.952;8.970;2023-05-10T07:01:04;15.50;99.90
16066;DHT22;8137;48.952;8.970;2023-05-10T07:03:31;15.60;99.90
16066;DHT22;8137;48.952;8.970;2023-05-10T07:06:03;15.70;99.90
16066;DHT22;8137;48.952;8.970;2023-05-10T07:08:32;15.60;99.90
16066;DHT22;8137;48.952;8.970;2023-05-10T07:11:02;15.50;99.90
16066;DHT22;8137;48.952;8.970;2023-05-10T07:13:29;15.50;99.90
16066;DHT22;8137;48.952;8.970;2023-05-10T07:15:55;15.70;99.90
16066;DHT22;8137;48.952;8.970;2023-05-10T07:18:21;15.70;99.90
16066;DHT22;8137;48.952;8.970;2023-05-10T07:20:46;15.50;99.90
16066;DHT22;8137;48.952;8.970;2023-05-10T07:23:12;15.60;99.90
16066;DHT22;8137;48.952;8.970;2023-05-10T07:25:37;15.60;99.90
16066;DHT22;8137;48.952;8.970;2023-05-10T07:28:03;15.60;99.90
16066;DHT22;8137;48.952;8.970;2023-05-10T07:30:29;15.50;99.90
16066;DHT22;8137;48.952;8.970;2023-05-10T07:32:58;15.40;99.90
16066;DHT22;8137;48.952;8.970;2023-05-10T07:35:24;15.30;99.90
16066;DHT22;8137;48.952;8.970;2023-05-10T07:37:50;15.50;99.90
16066;DHT22;8137;48.952;8.970;2023-05-10T07:40:15;15.40;99.90
16066;DHT22;8137;48.952;8.970;2023-05-10T07:42:41;15.60;99.90
16066;DHT22;8137;48.952;8.970;2023-05-10T07:45:07;15.50;99.90
16066;DHT22;8137;48.952;8.970;2023-05-10T07:47:32;15.40;99.90
16066;DHT22;8137;48.952;8.970;2023-05-10T07:49:58;15.30;99.90
16066;DHT22;8137;48.952;8.970;2023-05-10T07:52:23;15.50;99.90
16066;DHT22;8137;48.952;8.970;2023-05-10T07:54:49;15.50;99.90
16066;DHT22;8137;48.952;8.970;2023-05-10T07:57:15;15.40;99.90
16066;DHT22;8137;48.952;8.970;2023-05-10T07:59:43;15.50;99.90
16066;DHT22;8137;48.952;8.970;2023-05-10T08:02:09;15.50;99.90
16066;DHT22;8137;48.952;8.970;2023-05-10T08:04:34;15.60;99.90
16066;DHT22;8137;48.952;8.970;2023-05-10T08:07:00;15.60;99.90
16066;DHT22;8137;48.952;8.970;2023-05-10T08:09:25;15.60;99.90
16066;DHT22;8137;48.952;8.970;2023-05-10T08:11:51;15.60;99.90
16066;DHT22;8137;48.952;8.970;2023-05-10T08:14:17;15.70;99.90
16066;DHT22;8137;48.952;8.970;2023-05-10T08:16:42;15.90;99.90
16066;DHT22;8137;48.952;8.970;2023-05-10T08:19:08;15.80;99.90
16066;DHT22;8137;48.952;8.970;2023-05-10T08:21:33;15.90;99.90
16066;DHT22;8137;48.952;8.970;2023-05-10T08:23:59;16.00;99.90
16066;DHT22;8137;48.952;8.970;2023-05-10T08:26:25;16.10;99.90
16066;DHT22;8137;48.952;8.970;2023-05-10T08:28:51;16.30;99.90
16066;DHT22;8137;48.952;8.970;2023-05-10T08:31:16;16.40;99.90
16066;DHT22;8137;48.952;8.970;2023-05-10T08:33:43;16.50;99.90
16066;DHT22;8137;48.952;8.970;2023-05-10T08:36:09;16.40;99.90
16066;DHT22;8137;48.952;8.970;2023-05-10T08:38:34;16.20;99.90
16066;DHT22;8137;48.952;8.970;2023-05-10T08:41:02;16.30;99.90
16066;DHT22;8137;48.952;8.970;2023-05-10T08:43:28;16.40;99.90
16066;DHT22;8137;48.952;8.970;2023-05-10T08:45:55;16.30;99.90
16066;DHT22;8137;48.952;8.970;2023-05-10T08:48:23;15.90;99.90
16066;DHT22;8137;48.952;8.970;2023-05-10T08:50:52;15.50;99.90
16066;DHT22;8137;48.952;8.970;2023-05-10T08:53:19;15.10;99.90
16066;DHT22;8137;48.952;8.970;2023-05-10T08:55:45;14.90;99.90
16066;DHT22;8137;48.952;8.970;2023-05-10T08:58:11;14.80;99.90
16066;DHT22;8137;48.952;8.970;2023-05-10T09:00:37;14.70;99.90
16066;DHT22;8137;48.952;8.970;2023-05-10T09:03:04;14.90;99.90
16066;DHT22;8137;48.952;8.970;2023-05-10T09:05:30;15.00;99.90
16066;DHT22;8137;48.952;8.970;2023-05-10T09:07:56;15.50;99.90
16066;DHT22;8137;48.952;8.970;2023-05-10T09:10:22;15.80;99.90
16066;DHT22;8137;48.952;8.970;2023-05-10T09:12:51;16.20;99.90
16066;DHT22;8137;48.952;8.970;2023-05-10T09:15:17;16.90;99.90
16066;DHT22;8137;48.952;8.970;2023-05-10T09:17:45;17.20;99.90
16066;DHT22;8137;48.952;8.970;2023-05-10T09:20:10;17.40;99.90
16066;DHT22;8137;48.952;8.970;2023-05-10T09:22:36;17.30;99.90
16066;DHT22;8137;48.952;8.970;2023-05-10T09:25:09;17.30;99.90
16066;DHT22;8137;48.952;8.970;2023-05-10T09:27:40;17.40;99.90
16066;DHT22;8137;48.952;8.970;2023-05-10T09:30:07;17.40;99.90
16066;DHT22;8137;48.952;8.970;2023-05-10T09:35:13;17.60;99.90
16066;DHT22;8137;48.952;8.970;2023-05-10T09:37:40;17.70;99.90
16066;DHT22;8137;48.952;8.970;2023-05-10T09:40:19;17.60;99.90
16066;DHT22;8137;48.952;8.970;2023-05-10T09:43:06;17.40;99.90
16066;DHT22;8137;48.952;8.970;2023-05-10T09:45:33;17.10;99.90
16066;DHT22;8137;48.952;8.970;2023-05-10T09:48:01;17.10;99.90
16066;DHT22;8137;48.952;8.970;2023-05-10T09:50:27;17.00;99.90
16066;DHT22;8137;48.952;8.970;2023-05-10T09:52:54;17.40;99.90
16066;DHT22;8137;48.952;8.970;2023-05-10T09:55:22;17.40;99.90
16066;DHT22;8137;48.952;8.970;2023-05-10T09:57:49;17.60;99.90
16066;DHT22;8137;48.952;8.970;2023-05-10T10:00:19;17.60;99.90
16066;DHT22;8137;48.952;8.970;2023-05-10T10:02:53;17.60;99.90
16066;DHT22;8137;48.952;8.970;2023-05-10T10:05:19;17.30;99.90
16066;DHT22;8137;48.952;8.970;2023-05-10T10:07:45;17.30;99.90
16066;DHT22;8137;48.952;8.970;2023-05-10T10:10:11;17.50;99.90
16066;DHT22;8137;48.952;8.970;2023-05-10T10:12:39;17.60;99.90
16066;DHT22;8137;48.952;8.970;2023-05-10T10:15:05;17.70;99.90
16066;DHT22;8137;48.952;8.970;2023-05-10T10:17:32;17.80;99.90
16066;DHT22;8137;48.952;8.970;2023-05-10T10:20:00;17.70;99.90
16066;DHT22;8137;48.952;8.970;2023-05-10T10:22:25;17.90;99.90
16066;DHT22;8137;48.952;8.970;2023-05-10T10:24:51;18.00;99.90
16066;DHT22;8137;48.952;8.970;2023-05-10T10:27:35;18.10;99.90
16066;DHT22;8137;48.952;8.970;2023-05-10T10:35:29;16.30;99.90
16066;DHT22;8137;48.952;8.970;2023-05-10T10:37:56;15.80;99.90
16066;DHT22;8137;48.952;8.970;2023-05-10T10:40:33;15.30;99.90
16066;DHT22;8137;48.952;8.970;2023-05-10T10:43:25;15.00;99.90
16066;DHT22;8137;48.952;8.970;2023-05-10T10:46:17;15.00;99.90
16066;DHT22;8137;48.952;8.970;2023-05-10T10:48:52;15.20;99.90
16066;DHT22;8137;48.952;8.970;2023-05-10T10:51:40;15.40;99.90
16066;DHT22;8137;48.952;8.970;2023-05-10T10:54:10;15.80;99.90
16066;DHT22;8137;48.952;8.970;2023-05-10T10:56:35;16.10;99.90
16066;DHT22;8137;48.952;8.970;2023-05-10T10:59:01;16.40;99.90
16066;DHT22;8137;48.952;8.970;2023-05-10T11:01:32;16.40;99.90
16066;DHT22;8137;48.952;8.970;2023-05-10T11:06:31;17.00;99.90
16066;DHT22;8137;48.952;8.970;2023-05-10T11:08:58;17.30;99.90
16066;DHT22;8137;48.952;8.970;2023-05-10T11:11:24;17.50;99.90
16066;DHT22;8137;48.952;8.970;2023-05-10T11:13:50;17.80;99.90
16066;DHT22;8137;48.952;8.970;2023-05-10T11:16:23;18.00;99.90
16066;DHT22;8137;48.952;8.970;2023-05-10T11:19:05;17.90;99.90
16066;DHT22;8137;48.952;8.970;2023-05-10T11:21:33;18.00;99.90
16066;DHT22;8137;48.952;8.970;2023-05-10T11:24:00;18.50;99.90
16066;DHT22;8137;48.952;8.970;2023-05-10T11:26:35;18.50;99.90
16066;DHT22;8137;48.952;8.970;2023-05-10T11:29:01;18.30;99.90
16066;DHT22;8137;48.952;8.970;2023-05-10T11:31:28;18.00;99.90
16066;DHT22;8137;48.952;8.970;2023-05-10T11:33:56;17.90;99.90
16066;DHT22;8137;48.952;8.970;2023-05-10T11:36:25;17.80;99.90
16066;DHT22;8137;48.952;8.970;2023-05-10T11:38:52;17.90;99.90
16066;DHT22;8137;48.952;8.970;2023-05-10T11:41:19;18.10;99.90
16066;DHT22;8137;48.952;8.970;2023-05-10T11:43:48;18.20;99.90
16066;DHT22;8137;48.952;8.970;2023-05-10T11:46:14;18.30;99.90
16066;DHT22;8137;48.952;8.970;2023-05-10T11:48:42;18.30;99.90
16066;DHT22;8137;48.952;8.970;2023-05-10T11:51:08;18.10;99.90
16066;DHT22;8137;48.952;8.970;2023-05-10T11:53:34;18.00;99.90
16066;DHT22;8137;48.952;8.970;2023-05-10T11:56:10;17.90;99.90
16066;DHT22;8137;48.952;8.970;2023-05-10T11:58:37;17.90;99.90
16066;DHT22;8137;48.952;8.970;2023-05-10T12:01:04;17.70;99.90
16066;DHT22;8137;48.952;8.970;2023-05-10T12:03:31;17.60;99.90
16066;DHT22;8137;48.952;8.970;2023-05-10T12:05:57;17.30;99.90
16066;DHT22;8137;48.952;8.970;2023-05-10T12:08:25;17.40;99.90
16066;DHT22;8137;48.952;8.970;2023-05-10T12:10:52;17.30;99.90
16066;DHT22;8137;48.952;8.970;2023-05-10T12:13:19;17.40;99.90
16066;DHT22;8137;48.952;8.970;2023-05-10T12:15:45;17.40;99.90
16066;DHT22;8137;48.952;8.970;2023-05-10T12:18:12;17.70;99.90
16066;DHT22;8137;48.952;8.970;2023-05-10T12:20:39;17.50;99.90
16066;DHT22;8137;48.952;8.970;2023-05-10T12:23:05;17.40;99.90
16066;DHT22;8137;48.952;8.970;2023-05-10T12:25:35;17.50;99.90
16066;DHT22;8137;48.952;8.970;2023-05-10T12:28:06;17.70;99.90
16066;DHT22;8137;48.952;8.970;2023-05-10T12:30:33;17.60;99.90
16066;DHT22;8137;48.952;8.970;2023-05-10T12:33:00;17.60;99.90
16066;DHT22;8137;48.952;8.970;2023-05-10T12:35:30;17.50;99.90
16066;DHT22;8137;48.952;8.970;2023-05-10T12:37:55;17.50;99.90
16066;DHT22;8137;48.952;8.970;2023-05-10T12:40:21;17.60;99.90
16066;DHT22;8137;48.952;8.970;2023-05-10T12:42:47;17.50;99.90
16066;DHT22;8137;48.952;8.970;2023-05-10T12:45:14;17.30;99.90
16066;DHT22;8137;48.952;8.970;2023-05-10T12:47:40;17.30;99.90
16066;DHT22;8137;48.952;8.970;2023-05-10T12:50:06;17.40;99.90
16066;DHT22;8137;48.952;8.970;2023-05-10T12:52:31;17.70;99.90
16066;DHT22;8137;48.952;8.970;2023-05-10T12:54:58;17.70;99.90
16066;DHT22;8137;48.952;8.970;2023-05-10T12:57:24;17.70;99.90
16066;DHT22;8137;48.952;8.970;2023-05-10T12:59:50;17.80;99.90
16066;DHT22;8137;48.952;8.970;2023-05-10T13:02:16;18.20;99.90
16066;DHT22;8137;48.952;8.970;2023-05-10T13:04:44;18.20;99.90
16066;DHT22;8137;48.952;8.970;2023-05-10T13:07:10;18.00;99.90
16066;DHT22;8137;48.952;8.970;2023-05-10T13:09:35;17.90;99.90
16066;DHT22;8137;48.952;8.970;2023-05-10T13:12:01;18.40;99.90
16066;DHT22;8137;48.952;8.970;2023-05-10T13:14:27;18.60;99.90
16066;DHT22;8137;48.952;8.970;2023-05-10T13:16:53;18.40;99.90
16066;DHT22;8137;48.952;8.970;2023-05-10T13:19:19;18.30;99.90
16066;DHT22;8137;48.952;8.970;2023-05-10T13:21:45;18.20;99.90
16066;DHT22;8137;48.952;8.970;2023-05-10T13:24:11;18.30;99.90
16066;DHT22;8137;48.952;8.970;2023-05-10T13:26:39;18.30;99.90
16066;DHT22;8137;48.952;8.970;2023-05-10T13:29:05;18.50;99.90
16066;DHT22;8137;48.952;8.970;2023-05-10T13:31:30;18.50;99.90
16066;DHT22;8137;48.952;8.970;2023-05-10T13:33:56;18.60;99.90
16066;DHT22;8137;48.952;8.970;2023-05-10T13:36:21;18.30;99.90
16066;DHT22;8137;48.952;8.970;2023-05-10T13:38:48;18.00;99.90
16066;DHT22;8137;48.952;8.970;2023-05-10T13:41:13;18.10;99.90
16066;DHT22;8137;48.952;8.970;2023-05-10T13:43:39;18.10;99.90
16066;DHT22;8137;48.952;8.970;2023-05-10T13:46:05;18.10;99.90
16066;DHT22;8137;48.952;8.970;2023-05-10T13:48:31;18.40;99.90
16066;DHT22;8137;48.952;8.970;2023-05-10T13:50:56;18.20;99.90
16066;DHT22;8137;48.952;8.970;2023-05-10T13:53:22;18.30;99.90
16066;DHT22;8137;48.952;8.970;2023-05-10T13:55:48;18.40;99.90
16066;DHT22;8137;48.952;8.970;2023-05-10T13:58:14;18.50;99.90
16066;DHT22;8137;48.952;8.970;2023-05-10T14:00:40;18.80;99.90
16066;DHT22;8137;48.952;8.970;2023-05-10T14:03:05;19.00;99.90
16066;DHT22;8137;48.952;8.970;2023-05-10T14:05:32;19.10;99.90
16066;DHT22;8137;48.952;8.970;2023-05-10T14:07:58;18.80;99.90
16066;DHT22;8137;48.952;8.970;2023-05-10T14:10:23;18.60;99.90
16066;DHT22;8137;48.952;8.970;2023-05-10T14:12:49;18.80;99.90
16066;DHT22;8137;48.952;8.970;2023-05-10T14:15:15;18.50;99.90
16066;DHT22;8137;48.952;8.970;2023-05-10T14:17:41;18.20;99.90
16066;DHT22;8137;48.952;8.970;2023-05-10T14:20:07;18.10;99.90
16066;DHT22;8137;48.952;8.970;2023-05-10T14:22:32;18.10;99.90
16066;DHT22;8137;48.952;8.970;2023-05-10T14:24:58;18.00;99.90
16066;DHT22;8137;48.952;8.970;2023-05-10T14:27:24;18.10;99.90
16066;DHT22;8137;48.952;8.970;2023-05-10T14:29:50;17.90;99.90
16066;DHT22;8137;48.952;8.970;2023-05-10T14:32:15;17.90;99.90
16066;DHT22;8137;48.952;8.970;2023-05-10T14:34:41;18.10;99.90
16066;DHT22;8137;48.952;8.970;2023-05-10T14:37:09;18.00;99.90
16066;DHT22;8137;48.952;8.970;2023-05-10T14:39:35;18.00;99.90
16066;DHT22;8137;48.952;8.970;2023-05-10T14:42:01;18.30;99.90
16066;DHT22;8137;48.952;8.970;2023-05-10T14:44:28;18.30;99.90
16066;DHT22;8137;48.952;8.970;2023-05-10T14:46:53;18.10;99.90
16066;DHT22;8137;48.952;8.970;2023-05-10T14:49:19;18.40;99.90
16066;DHT22;8137;48.952;8.970;2023-05-10T14:51:48;18.40;99.90
16066;DHT22;8137;48.952;8.970;2023-05-10T14:54:13;18.50;99.90
16066;DHT22;8137;48.952;8.970;2023-05-10T14:56:39;18.50;99.90
16066;DHT22;8137;48.952;8.970;2023-05-10T14:59:06;18.50;99.90
16066;DHT22;8137;48.952;8.970;2023-05-10T15:01:32;18.30;99.90
16066;DHT22;8137;48.952;8.970;2023-05-10T15:03:58;18.30;99.90
16066;DHT22;8137;48.952;8.970;2023-05-10T15:06:30;18.30;99.90
16066;DHT22;8137;48.952;8.970;2023-05-10T15:08:56;18.40;99.90
16066;DHT22;8137;48.952;8.970;2023-05-10T15:11:22;18.30;99.90
16066;DHT22;8137;48.952;8.970;2023-05-10T15:13:47;18.20;99.90
16066;DHT22;8137;48.952;8.970;2023-05-10T15:16:13;18.30;99.90
16066;DHT22;8137;48.952;8.970;2023-05-10T15:18:38;18.30;99.90
16066;DHT22;8137;48.952;8.970;2023-05-10T15:21:04;18.20;99.90
16066;DHT22;8137;48.952;8.970;2023-05-10T15:23:29;18.40;99.90
16066;DHT22;8137;48.952;8.970;2023-05-10T15:25:55;18.40;99.90
16066;DHT22;8137;48.952;8.970;2023-05-10T15:28:21;18.40;99.90
16066;DHT22;8137;48.952;8.970;2023-05-10T15:30:47;18.50;99.90
16066;DHT22;8137;48.952;8.970;2023-05-10T15:33:13;18.60;99.90
16066;DHT22;8137;48.952;8.970;2023-05-10T15:35:39;18.80;99.90
16066;DHT22;8137;48.952;8.970;2023-05-10T15:38:05;18.70;99.90
16066;DHT22;8137;48.952;8.970;2023-05-10T15:40:31;18.50;99.90
16066;DHT22;8137;48.952;8.970;2023-05-10T15:42:56;18.30;99.90
16066;DHT22;8137;48.952;8.970;2023-05-10T15:45:22;18.10;99.90
16066;DHT22;8137;48.952;8.970;2023-05-10T15:47:47;18.10;99.90
16066;DHT22;8137;48.952;8.970;2023-05-10T15:50:14;18.00;99.90
16066;DHT22;8137;48.952;8.970;2023-05-10T15:52:40;18.00;99.90
16066;DHT22;8137;48.952;8.970;2023-05-10T15:55:07;18.10;99.90
16066;DHT22;8137;48.952;8.970;2023-05-10T15:57:40;18.10;99.90
16066;DHT22;8137;48.952;8.970;2023-05-10T16:00:09;18.30;99.90
16066;DHT22;8137;48.952;8.970;2023-05-10T16:02:35;18.50;99.90
16066;DHT22;8137;48.952;8.970;2023-05-10T16:05:00;18.60;99.90
16066;DHT22;8137;48.952;8.970;2023-05-10T16:07:26;18.60;99.90
16066;DHT22;8137;48.952;8.970;2023-05-10T16:09:51;18.60;99.90
16066;DHT22;8137;48.952;8.970;2023-05-10T16:12:17;18.50;99.90
16066;DHT22;8137;48.952;8.970;2023-05-10T16:14:43;18.50;99.90
16066;DHT22;8137;48.952;8.970;2023-05-10T16:17:08;18.40;99.90